createdAt,value
2022-11-30T00:01:25.408Z,6.49
2022-11-30T00:03:54.988Z,6.44
2022-11-30T00:06:23.858Z,6.44
2022-11-30T00:08:54.256Z,6.43
2022-11-30T00:11:25.401Z,6.50
2022-11-30T00:13:53.614Z,6.47
2022-11-30T00:16:22.048Z,6.50
2022-11-30T00:18:50.023Z,6.50
2022-11-30T00:21:17.873Z,6.46
2022-11-30T00:23:47.331Z,6.54
2022-11-30T00:26:17.333Z,6.53
2022-11-30T00:28:47.636Z,6.58
2022-11-30T00:31:18.612Z,6.54
2022-11-30T00:33:46.911Z,6.58
2022-11-30T00:36:16.597Z,6.63
2022-11-30T00:38:45.243Z,6.66
2022-11-30T00:41:13.623Z,6.66
2022-11-30T00:43:41.477Z,6.71
2022-11-30T00:46:10.936Z,6.67
2022-11-30T00:48:38.793Z,6.69
2022-11-30T00:51:08.356Z,6.69
2022-11-30T00:53:36.262Z,6.76
2022-11-30T00:56:04.996Z,6.70
2022-11-30T00:58:32.756Z,6.70
2022-11-30T01:01:00.754Z,6.63
2022-11-30T01:03:30.139Z,6.64
2022-11-30T01:06:02.332Z,6.67
2022-11-30T01:08:30.121Z,6.67
2022-11-30T01:10:58.372Z,6.69
2022-11-30T01:13:26.075Z,6.70
2022-11-30T01:15:53.832Z,6.64
2022-11-30T01:18:21.597Z,6.69
2022-11-30T01:20:50.692Z,6.73
2022-11-30T01:23:18.461Z,6.79
2022-11-30T01:25:55.196Z,6.76
2022-11-30T01:28:22.981Z,6.69
2022-11-30T01:30:57.968Z,6.76
2022-11-30T01:33:26.186Z,6.77
2022-11-30T01:36:03.423Z,6.79
2022-11-30T01:38:34.739Z,6.77
2022-11-30T01:41:03.000Z,6.77
2022-11-30T01:43:44.661Z,6.67
2022-11-30T01:46:23.415Z,6.70
2022-11-30T01:48:57.925Z,6.60
2022-11-30T01:51:29.565Z,6.64
2022-11-30T01:53:57.437Z,6.62
2022-11-30T01:56:25.334Z,6.66
2022-11-30T01:58:53.139Z,6.66
2022-11-30T02:01:20.917Z,6.62
2022-11-30T02:03:56.833Z,6.58
2022-11-30T02:06:27.126Z,6.63
2022-11-30T02:08:55.974Z,6.66
2022-11-30T02:11:25.209Z,6.62
2022-11-30T02:14:02.633Z,6.60
2022-11-30T02:16:40.687Z,6.63
2022-11-30T02:19:31.998Z,6.67
2022-11-30T02:22:07.977Z,6.66
2022-11-30T02:24:45.789Z,6.62
2022-11-30T02:27:25.896Z,6.58
2022-11-30T02:29:57.497Z,6.50
2022-11-30T02:32:30.362Z,6.53
2022-11-30T02:35:00.308Z,6.54
2022-11-30T02:37:29.618Z,6.54
2022-11-30T02:39:57.294Z,6.52
2022-11-30T02:42:25.084Z,6.60
2022-11-30T02:44:55.330Z,6.58
2022-11-30T02:47:28.544Z,6.54
2022-11-30T02:50:01.211Z,6.54
2022-11-30T02:52:31.326Z,6.56
2022-11-30T02:55:03.371Z,6.56
2022-11-30T02:57:31.513Z,6.57
2022-11-30T03:00:04.353Z,6.62
2022-11-30T03:02:32.173Z,6.58
2022-11-30T03:04:59.997Z,6.56
2022-11-30T03:07:27.827Z,6.58
2022-11-30T03:09:56.939Z,6.62
2022-11-30T03:12:24.782Z,6.60
2022-11-30T03:14:52.835Z,6.66
2022-11-30T03:17:22.037Z,6.60
2022-11-30T03:19:49.836Z,6.62
2022-11-30T03:22:17.657Z,6.66
2022-11-30T03:24:45.964Z,6.64
2022-11-30T03:27:14.027Z,6.57
2022-11-30T03:29:41.777Z,6.64
2022-11-30T03:32:09.700Z,6.74
2022-11-30T03:34:38.895Z,6.74
2022-11-30T03:37:06.683Z,6.70
2022-11-30T03:39:34.518Z,6.63
2022-11-30T03:42:02.288Z,6.64
2022-11-30T03:44:30.807Z,6.69
2022-11-30T03:46:58.637Z,6.73
2022-11-30T03:49:26.470Z,6.73
2022-11-30T03:51:55.615Z,6.74
2022-11-30T03:54:23.405Z,6.74
2022-11-30T03:56:51.207Z,6.70
2022-11-30T03:59:19.140Z,6.73
2022-11-30T04:01:46.895Z,6.73
2022-11-30T04:04:14.822Z,6.73
2022-11-30T04:06:42.569Z,6.66
2022-11-30T04:09:12.015Z,6.71
2022-11-30T04:11:39.616Z,6.71
2022-11-30T04:14:07.577Z,6.74
2022-11-30T04:16:35.407Z,6.79
2022-11-30T04:19:03.386Z,6.74
2022-11-30T04:21:31.359Z,6.76
2022-11-30T04:23:59.152Z,6.73
2022-11-30T04:26:28.365Z,6.74
2022-11-30T04:28:56.109Z,6.71
2022-11-30T04:31:23.948Z,6.69
2022-11-30T04:33:54.186Z,6.77
2022-11-30T04:36:22.529Z,6.74
2022-11-30T04:38:50.405Z,6.79
2022-11-30T04:41:18.167Z,6.83
2022-11-30T04:43:47.305Z,6.79
2022-11-30T04:46:15.143Z,6.76
2022-11-30T04:48:42.980Z,6.79
2022-11-30T04:51:10.768Z,6.73
2022-11-30T04:53:39.321Z,6.74
2022-11-30T04:56:08.073Z,6.73
2022-11-30T04:58:36.022Z,6.74
2022-11-30T05:01:05.421Z,6.71
2022-11-30T05:03:33.031Z,6.71
2022-11-30T05:06:00.795Z,6.73
2022-11-30T05:08:28.751Z,6.74
2022-11-30T05:10:56.854Z,6.73
2022-11-30T05:13:26.321Z,6.69
2022-11-30T05:15:54.563Z,6.67
2022-11-30T05:18:23.948Z,6.69
2022-11-30T05:20:51.929Z,6.63
2022-11-30T05:23:20.402Z,6.67
2022-11-30T05:25:48.609Z,6.67
2022-11-30T05:28:16.685Z,6.63
2022-11-30T05:30:45.046Z,6.73
2022-11-30T05:33:12.895Z,6.70
2022-11-30T05:35:42.108Z,6.67
2022-11-30T05:38:09.890Z,6.67
2022-11-30T05:40:37.874Z,6.71
2022-11-30T05:43:06.540Z,6.73
2022-11-30T05:45:34.308Z,6.71
2022-11-30T05:48:02.078Z,6.74
2022-11-30T05:50:29.847Z,6.74
2022-11-30T05:53:00.762Z,6.71
2022-11-30T05:55:31.022Z,6.66
2022-11-30T05:57:58.861Z,6.62
2022-11-30T06:00:26.680Z,6.60
2022-11-30T06:02:57.151Z,6.66
2022-11-30T06:05:25.143Z,6.63
2022-11-30T06:07:52.949Z,6.64
2022-11-30T06:10:22.506Z,6.60
2022-11-30T06:12:50.290Z,6.58
2022-11-30T06:15:18.147Z,6.57
2022-11-30T06:17:45.910Z,6.58
2022-11-30T06:20:14.930Z,6.58
2022-11-30T06:22:46.330Z,6.52
2022-11-30T06:25:14.946Z,6.49
2022-11-30T06:27:44.539Z,6.46
2022-11-30T06:30:13.626Z,6.44
2022-11-30T06:32:41.471Z,6.47
2022-11-30T06:35:09.852Z,6.39
2022-11-30T06:37:37.612Z,6.40
2022-11-30T06:40:07.783Z,6.37
2022-11-30T06:42:37.305Z,6.37
2022-11-30T06:45:07.956Z,6.34
2022-11-30T06:47:35.734Z,6.37
2022-11-30T06:50:03.699Z,6.36
2022-11-30T06:52:32.103Z,6.36
2022-11-30T06:54:59.808Z,6.33
2022-11-30T06:57:28.786Z,6.33
2022-11-30T06:59:57.039Z,6.30
2022-11-30T07:02:26.198Z,6.33
2022-11-30T07:04:53.992Z,6.36
2022-11-30T07:07:22.140Z,6.42
2022-11-30T07:09:50.629Z,6.37
2022-11-30T07:12:18.604Z,6.37
2022-11-30T07:14:46.679Z,6.36
2022-11-30T07:17:14.730Z,6.39
2022-11-30T07:19:43.833Z,6.34
2022-11-30T07:22:11.573Z,6.36
2022-11-30T07:24:57.026Z,6.66
2022-11-30T07:27:24.926Z,7.35
2022-11-30T07:29:53.282Z,7.41
2022-11-30T07:32:21.311Z,7.53
2022-11-30T07:34:50.682Z,7.76
2022-11-30T07:37:18.725Z,7.90
2022-11-30T07:39:46.485Z,7.77
2022-11-30T07:42:14.261Z,7.73
2022-11-30T07:44:43.135Z,7.75
2022-11-30T07:47:10.943Z,7.58
2022-11-30T07:49:39.724Z,7.87
2022-11-30T07:52:09.192Z,8.04
2022-11-30T07:54:36.951Z,8.01
2022-11-30T07:57:04.812Z,7.94
2022-11-30T07:59:32.617Z,7.90
2022-11-30T08:02:01.458Z,8.00
2022-11-30T08:04:29.380Z,7.97
2022-11-30T08:06:57.196Z,8.14
2022-11-30T08:09:26.314Z,8.06
2022-11-30T08:11:54.067Z,7.89
2022-11-30T08:14:21.934Z,7.70
2022-11-30T08:16:49.763Z,7.65
2022-11-30T08:19:17.766Z,7.79
2022-11-30T08:21:45.559Z,8.23
2022-11-30T08:24:13.978Z,8.37
2022-11-30T08:26:43.326Z,8.49
2022-11-30T08:29:11.692Z,8.37
2022-11-30T08:31:39.777Z,8.64
2022-11-30T08:34:09.235Z,8.51
2022-11-30T08:36:37.582Z,8.55
2022-11-30T08:39:07.364Z,8.66
2022-11-30T08:41:36.926Z,8.48
2022-11-30T08:44:07.009Z,8.48
2022-11-30T08:46:52.091Z,8.42
2022-11-30T08:49:23.054Z,8.30
2022-11-30T08:52:17.080Z,8.55
2022-11-30T08:54:44.959Z,8.38
2022-11-30T08:57:13.087Z,8.58
2022-11-30T08:59:42.276Z,8.73
2022-11-30T09:02:10.744Z,8.75
2022-11-30T09:04:38.585Z,8.69
2022-11-30T09:07:06.377Z,8.92
2022-11-30T09:09:34.169Z,9.15
2022-11-30T09:12:01.947Z,8.90
2022-11-30T09:14:30.144Z,9.03
2022-11-30T09:16:59.295Z,9.20
2022-11-30T09:19:27.291Z,9.06
2022-11-30T09:21:55.710Z,8.78
2022-11-30T09:24:23.474Z,8.82
2022-11-30T09:26:51.254Z,8.88
2022-11-30T09:29:19.001Z,9.00
2022-11-30T09:31:46.819Z,9.17
2022-11-30T09:34:15.922Z,9.07
2022-11-30T09:36:43.778Z,9.17
2022-11-30T09:39:12.767Z,9.15
2022-11-30T09:42:22.615Z,9.30
2022-11-30T09:44:59.605Z,9.26
2022-11-30T09:47:39.010Z,9.27
2022-11-30T09:50:13.680Z,9.31
2022-11-30T09:52:44.215Z,8.90
2022-11-30T09:55:15.948Z,8.78
2022-11-30T09:57:46.999Z,8.96
2022-11-30T10:00:18.008Z,8.88
2022-11-30T10:02:46.746Z,9.00
2022-11-30T10:05:18.542Z,8.59
2022-11-30T10:08:18.101Z,8.76
2022-11-30T10:10:53.396Z,8.80
2022-11-30T10:13:34.718Z,8.61
2022-11-30T10:16:13.467Z,8.48
2022-11-30T10:18:51.918Z,8.58
2022-11-30T10:21:37.864Z,8.65
2022-11-30T10:24:21.126Z,8.62
2022-11-30T10:26:55.524Z,8.27
2022-11-30T10:29:30.926Z,8.51
2022-11-30T10:32:01.244Z,8.71
2022-11-30T10:34:33.774Z,8.45
2022-11-30T10:37:07.070Z,8.38
2022-11-30T10:39:43.748Z,8.44
2022-11-30T10:42:14.627Z,8.14
2022-11-30T10:44:47.222Z,8.42
2022-11-30T10:47:20.686Z,8.49
2022-11-30T10:49:52.671Z,8.31
2022-11-30T10:52:25.040Z,8.21
2022-11-30T10:55:00.590Z,8.17
2022-11-30T10:57:32.865Z,7.98
2022-11-30T11:00:05.189Z,8.17
2022-11-30T11:02:42.201Z,7.90
2022-11-30T11:05:15.986Z,8.23
2022-11-30T11:07:51.455Z,8.23
2022-11-30T11:10:21.579Z,8.40
2022-11-30T11:12:54.845Z,8.23
2022-11-30T11:15:25.589Z,8.06
2022-11-30T11:17:54.906Z,8.08
2022-11-30T11:20:34.165Z,7.98
2022-11-30T11:23:04.832Z,7.75
2022-11-30T11:25:35.461Z,7.76
2022-11-30T11:28:08.892Z,7.73
2022-11-30T11:30:38.201Z,7.52
2022-11-30T11:33:19.043Z,7.42
2022-11-30T11:35:49.414Z,7.48
2022-11-30T11:38:27.152Z,7.55
2022-11-30T11:40:57.837Z,7.61
2022-11-30T11:43:27.460Z,7.66
2022-11-30T11:45:57.990Z,7.52
2022-11-30T11:48:32.682Z,7.62
2022-11-30T11:51:07.240Z,7.56
2022-11-30T11:53:51.523Z,7.41
2022-11-30T11:56:26.229Z,7.34
2022-11-30T11:58:59.701Z,7.29
2022-11-30T12:01:42.307Z,7.36
2022-11-30T12:04:23.213Z,7.41
2022-11-30T12:06:54.383Z,7.49
2022-11-30T12:09:27.962Z,7.41
2022-11-30T12:11:55.944Z,7.49
2022-11-30T12:14:26.062Z,7.59
2022-11-30T12:17:07.331Z,7.63
2022-11-30T12:19:42.390Z,7.52
2022-11-30T12:22:23.565Z,7.56
2022-11-30T12:25:06.175Z,7.51
2022-11-30T12:27:42.544Z,7.58
2022-11-30T12:30:19.255Z,7.53
2022-11-30T12:33:11.956Z,7.55
2022-11-30T12:35:47.687Z,7.62
2022-11-30T12:38:27.134Z,7.69
2022-11-30T12:41:06.605Z,7.75
2022-11-30T12:43:44.047Z,7.80
2022-11-30T12:46:19.410Z,7.79
2022-11-30T12:48:59.839Z,7.61
2022-11-30T12:51:34.218Z,7.49
2022-11-30T12:54:10.020Z,7.34
2022-11-30T12:56:48.575Z,7.36
2022-11-30T12:59:23.797Z,7.11
2022-11-30T13:02:14.793Z,7.09
2022-11-30T13:04:47.442Z,7.18
2022-11-30T13:07:25.330Z,7.24
2022-11-30T13:09:58.013Z,7.32
2022-11-30T13:12:35.988Z,7.34
2022-11-30T13:15:15.302Z,7.28
2022-11-30T13:17:44.911Z,7.21
2022-11-30T13:20:21.230Z,7.12
2022-11-30T13:22:54.396Z,7.11
2022-11-30T13:25:59.806Z,6.94
2022-11-30T13:28:30.873Z,6.90
2022-11-30T13:31:06.881Z,6.88
2022-11-30T13:33:49.170Z,6.85
2022-11-30T13:36:30.837Z,6.83
2022-11-30T13:39:21.462Z,6.84
2022-11-30T13:41:51.378Z,6.84
2022-11-30T13:44:26.521Z,6.91
2022-11-30T13:46:54.391Z,6.95
2022-11-30T13:49:24.364Z,6.95
2022-11-30T13:52:13.637Z,6.93
2022-11-30T13:54:45.504Z,7.02
2022-11-30T13:57:18.912Z,7.04
2022-11-30T13:59:51.535Z,6.90
2022-11-30T14:02:59.154Z,6.93
2022-11-30T14:05:42.591Z,6.87
2022-11-30T14:08:13.991Z,6.95
2022-11-30T14:10:43.126Z,7.04
2022-11-30T14:13:30.392Z,7.01
2022-11-30T14:16:01.543Z,7.07
2022-11-30T14:18:41.987Z,7.07
2022-11-30T14:21:25.423Z,7.05
2022-11-30T14:23:59.717Z,6.77
2022-11-30T14:26:36.139Z,6.76
2022-11-30T14:29:11.451Z,6.81
2022-11-30T14:31:47.810Z,6.81
2022-11-30T14:34:18.756Z,6.83
2022-11-30T14:36:51.869Z,6.85
2022-11-30T14:39:34.185Z,6.87
2022-11-30T14:42:02.512Z,6.88
2022-11-30T14:44:35.508Z,6.87
2022-11-30T14:47:22.116Z,6.76
2022-11-30T14:49:52.702Z,6.69
2022-11-30T14:52:46.194Z,6.64
2022-11-30T14:55:25.631Z,6.63
2022-11-30T14:58:05.596Z,6.58
2022-11-30T15:00:39.271Z,6.62
2022-11-30T15:03:20.209Z,6.52
2022-11-30T15:05:50.853Z,6.39
2022-11-30T15:08:20.084Z,6.37
2022-11-30T15:10:48.425Z,6.33
2022-11-30T15:13:20.432Z,6.37
2022-11-30T15:15:53.473Z,6.37
2022-11-30T15:18:23.576Z,6.34
2022-11-30T15:20:56.929Z,6.33
2022-11-30T15:23:24.904Z,6.30
2022-11-30T15:25:57.171Z,6.39
2022-11-30T15:28:32.512Z,6.36
2022-11-30T15:31:08.018Z,6.37
2022-11-30T15:33:42.536Z,6.39
2022-11-30T15:38:59.272Z,6.42
2022-11-30T15:41:27.429Z,6.30
2022-11-30T15:43:56.959Z,6.26
2022-11-30T15:46:30.433Z,6.26
2022-11-30T15:49:16.935Z,6.25
2022-11-30T15:51:46.784Z,6.21
2022-11-30T15:54:15.312Z,6.16
2022-11-30T15:56:55.461Z,6.16
2022-11-30T15:59:25.595Z,6.21
2022-11-30T16:02:02.141Z,6.21
2022-11-30T16:05:22.303Z,6.18
2022-11-30T16:07:53.358Z,6.12
2022-11-30T16:10:24.581Z,6.11
2022-11-30T16:12:54.413Z,6.13
2022-11-30T16:15:24.800Z,6.09
2022-11-30T16:17:55.047Z,6.09
2022-11-30T16:20:24.929Z,6.09
2022-11-30T16:22:52.986Z,6.05
2022-11-30T16:25:22.850Z,5.98
2022-11-30T16:27:51.349Z,5.99
2022-11-30T16:30:22.062Z,5.99
2022-11-30T16:32:50.532Z,5.97
2022-11-30T16:35:23.154Z,5.92
2022-11-30T16:37:52.742Z,5.94
2022-11-30T16:40:21.137Z,5.89
2022-11-30T16:42:49.940Z,5.91
2022-11-30T16:45:20.559Z,5.84
2022-11-30T16:47:48.342Z,5.85
2022-11-30T16:50:16.502Z,5.91
2022-11-30T16:52:44.739Z,5.89
2022-11-30T16:55:16.260Z,5.94
2022-11-30T16:57:44.407Z,5.94
2022-11-30T17:00:15.805Z,5.94
2022-11-30T17:02:48.307Z,5.95
2022-11-30T17:05:16.592Z,5.92
2022-11-30T17:07:44.685Z,5.95
2022-11-30T17:10:13.548Z,5.94
2022-11-30T17:12:42.836Z,5.94
2022-11-30T17:15:16.342Z,5.98
2022-11-30T17:17:44.542Z,5.95
2022-11-30T17:20:14.004Z,5.99
2022-11-30T17:22:43.847Z,5.99
2022-11-30T17:25:16.290Z,5.99
2022-11-30T17:27:45.936Z,6.02
2022-11-30T17:30:17.689Z,5.99
2022-11-30T17:32:45.806Z,5.99
2022-11-30T17:35:13.792Z,5.99
2022-11-30T17:37:41.647Z,6.02
2022-11-30T17:40:13.093Z,5.94
2022-11-30T17:42:41.277Z,6.01
2022-11-30T17:45:11.413Z,6.03
2022-11-30T17:47:39.482Z,5.98
2022-11-30T17:50:09.017Z,5.98
2022-11-30T17:52:36.842Z,6.03
2022-11-30T17:55:05.098Z,6.05
2022-11-30T17:57:32.945Z,6.09
2022-11-30T18:00:00.811Z,6.03
2022-11-30T18:02:30.092Z,6.03
2022-11-30T18:04:58.187Z,6.06
2022-11-30T18:07:26.259Z,6.08
2022-11-30T18:09:54.151Z,6.01
2022-11-30T18:12:21.980Z,5.98
2022-11-30T18:14:50.181Z,6.01
2022-11-30T18:17:18.177Z,6.02
2022-11-30T18:19:47.934Z,6.13
2022-11-30T18:22:15.772Z,6.12
2022-11-30T18:24:43.652Z,6.06
2022-11-30T18:27:12.199Z,6.11
2022-11-30T18:29:40.034Z,6.02
2022-11-30T18:32:08.791Z,6.05
2022-11-30T18:34:36.664Z,5.98
2022-11-30T18:37:07.054Z,5.98
2022-11-30T18:39:34.881Z,5.95
2022-11-30T18:42:02.686Z,5.95
2022-11-30T18:44:30.477Z,5.97
2022-11-30T18:46:58.291Z,5.95
2022-11-30T18:49:26.115Z,5.92
2022-11-30T18:51:53.924Z,5.95
2022-11-30T18:54:23.668Z,5.97
2022-11-30T18:56:51.421Z,6.01
2022-11-30T18:59:19.275Z,5.97
2022-11-30T19:01:47.362Z,5.95
2022-11-30T19:04:15.425Z,5.94
2022-11-30T19:06:43.802Z,5.95
2022-11-30T19:09:14.221Z,5.97
2022-11-30T19:11:44.391Z,5.98
2022-11-30T19:14:14.621Z,5.95
2022-11-30T19:16:42.716Z,6.01
2022-11-30T19:19:14.901Z,5.95
2022-11-30T19:21:45.047Z,5.94
2022-11-30T19:24:12.853Z,5.91
2022-11-30T19:26:40.748Z,5.89
2022-11-30T19:29:11.812Z,5.89
2022-11-30T19:31:39.629Z,5.85
2022-11-30T19:34:12.515Z,5.87
2022-11-30T19:36:41.109Z,5.87
2022-11-30T19:39:09.130Z,5.79
2022-11-30T19:41:36.941Z,5.79
2022-11-30T19:44:05.101Z,5.81
2022-11-30T19:46:34.505Z,5.81
2022-11-30T19:49:02.909Z,5.79
2022-11-30T19:51:32.035Z,5.78
2022-11-30T19:54:01.753Z,5.82
2022-11-30T19:56:31.453Z,5.79
2022-11-30T19:59:04.648Z,5.79
2022-11-30T20:01:35.617Z,5.85
2022-11-30T20:04:04.235Z,5.82
2022-11-30T20:06:33.996Z,5.84
2022-11-30T20:09:01.945Z,5.78
2022-11-30T20:11:30.416Z,5.77
2022-11-30T20:13:58.447Z,5.79
2022-11-30T20:16:26.411Z,5.77
2022-11-30T20:18:57.281Z,5.78
2022-11-30T20:21:27.151Z,5.78
2022-11-30T20:23:58.079Z,5.72
2022-11-30T20:26:29.746Z,5.72
2022-11-30T20:28:59.039Z,5.79
2022-11-30T20:31:27.932Z,5.75
2022-11-30T20:33:57.252Z,5.78
2022-11-30T20:36:25.159Z,5.82
2022-11-30T20:38:53.161Z,5.77
2022-11-30T20:41:22.930Z,5.75
2022-11-30T20:43:51.556Z,5.78
2022-11-30T20:46:22.046Z,5.75
2022-11-30T20:48:51.132Z,5.75
2022-11-30T20:51:31.154Z,5.78
2022-11-30T20:54:01.092Z,5.78
2022-11-30T20:56:29.005Z,5.74
2022-11-30T20:58:57.258Z,5.77
2022-11-30T21:01:25.161Z,5.74
2022-11-30T21:03:53.224Z,5.77
2022-11-30T21:06:22.478Z,5.67
2022-11-30T21:08:50.338Z,5.64
2022-11-30T21:11:20.195Z,5.68
2022-11-30T21:13:50.533Z,5.67
2022-11-30T21:16:25.626Z,5.71
2022-11-30T21:18:55.988Z,5.71
2022-11-30T21:21:26.524Z,5.70
2022-11-30T21:23:54.398Z,5.65
2022-11-30T21:26:24.158Z,5.67
2022-11-30T21:28:53.886Z,5.64
2022-11-30T21:31:22.717Z,5.57
2022-11-30T21:33:53.533Z,5.61
2022-11-30T21:36:22.958Z,5.60
2022-11-30T21:39:02.645Z,5.61
2022-11-30T21:41:32.142Z,5.64
2022-11-30T21:43:59.876Z,5.58
2022-11-30T21:46:27.785Z,5.62
2022-11-30T21:48:55.695Z,5.62
2022-11-30T21:51:25.630Z,5.57
2022-11-30T21:53:56.656Z,5.58
2022-11-30T21:56:25.896Z,5.60
2022-11-30T21:58:54.336Z,5.62
2022-11-30T22:01:25.139Z,5.60
2022-11-30T22:03:54.010Z,5.61
2022-11-30T22:06:21.921Z,5.61
2022-11-30T22:08:50.082Z,5.62
2022-11-30T22:11:21.710Z,5.65
2022-11-30T22:13:51.009Z,5.61
2022-11-30T22:16:20.198Z,5.60
2022-11-30T22:18:48.539Z,5.60
2022-11-30T22:21:17.948Z,5.57
2022-11-30T22:23:47.113Z,5.46
2022-11-30T22:26:17.578Z,5.47
2022-11-30T22:28:48.613Z,5.44
2022-11-30T22:31:18.487Z,5.41
2022-11-30T22:33:46.503Z,5.46
2022-11-30T22:36:16.748Z,5.46
2022-11-30T22:38:45.249Z,5.47
2022-11-30T22:41:14.800Z,5.48
2022-11-30T22:43:43.370Z,5.46
2022-11-30T22:46:15.142Z,5.43
2022-11-30T22:48:44.178Z,5.40
2022-11-30T22:51:14.100Z,5.39
2022-11-30T22:53:42.632Z,5.39
2022-11-30T22:56:13.183Z,5.37
2022-11-30T22:58:41.809Z,5.36
2022-11-30T23:01:12.922Z,5.39
2022-11-30T23:03:42.511Z,5.41
2022-11-30T23:06:11.273Z,5.41
2022-11-30T23:08:39.239Z,5.47
2022-11-30T23:11:09.251Z,5.51
2022-11-30T23:13:38.120Z,5.55
2022-11-30T23:16:06.781Z,5.52
2022-11-30T23:18:39.716Z,5.48
2022-11-30T23:21:09.909Z,5.50
2022-11-30T23:23:37.831Z,5.47
2022-11-30T23:26:10.048Z,5.57
2022-11-30T23:28:41.050Z,5.57
2022-11-30T23:31:10.582Z,5.52
2022-11-30T23:33:59.655Z,5.50
2022-11-30T23:36:27.519Z,5.43
2022-11-30T23:38:58.196Z,5.50
2022-11-30T23:41:26.830Z,5.44
2022-11-30T23:43:55.088Z,5.39
2022-11-30T23:46:23.291Z,5.36
2022-11-30T23:48:51.217Z,5.33
2022-11-30T23:51:20.411Z,5.30
2022-11-30T23:53:48.668Z,5.37
2022-11-30T23:56:18.008Z,5.43
2022-11-30T23:58:45.747Z,5.39
